Time;durP1;ratioP1;P1;durP2;ratioP2;P2;SDS_P1;SDS_P2;PMS_P1;PMS_P2;Temp;Humidity;BMP_temperature;BMP_pressure;BME280_temperature;BME280_humidity;BME280_pressure;Samples;Min_cycle;Max_cycle;Signal;HPM_P1;HPM_P2
2021/07/28 00:00:14;;;;;;;4.40;4.10;;;;;;;31.10;36.64;99372.85;1693780;84;21019;-53
2021/07/28 00:02:42;;;;;;;3.83;3.45;;;;;;;31.09;36.63;99373.04;1693592;84;21807;-51
2021/07/28 00:05:11;;;;;;;4.12;3.62;;;;;;;31.07;36.65;99374.58;1684726;84;21041;-51
2021/07/28 00:07:37;;;;;;;3.67;3.37;;;;;;;31.08;36.67;99372.17;1670930;85;21065;-51
2021/07/28 00:10:06;;;;;;;6.40;3.12;;;;;;;31.07;36.69;99366.43;1670976;85;21046;-53
2021/07/28 00:12:32;;;;;;;4.00;3.67;;;;;;;31.05;36.69;99365.78;1671152;84;21035;-51
2021/07/28 00:14:58;;;;;;;4.03;3.72;;;;;;;31.05;36.70;99360.35;1647349;85;21234;-50
2021/07/28 00:17:27;;;;;;;3.95;3.40;;;;;;;31.04;36.73;99355.11;1671115;85;21040;-52
2021/07/28 00:20:01;;;;;;;3.98;3.67;;;;;;;31.03;36.71;99336.58;1693949;83;21089;-53
2021/07/28 00:25:08;;;;;;;3.98;3.65;;;;;;;31.01;36.76;99335.94;1720739;83;21116;-52
2021/07/28 00:27:35;;;;;;;4.15;3.77;;;;;;;31.00;36.76;99342.42;1676324;85;21162;-52
2021/07/28 00:30:08;;;;;;;3.65;3.35;;;;;;;30.98;36.78;99344.45;1720714;83;21588;-52
2021/07/28 00:32:35;;;;;;;3.87;3.45;;;;;;;30.96;36.80;99339.73;1676471;85;21035;-53
2021/07/28 00:35:03;;;;;;;4.25;3.85;;;;;;;30.97;36.83;99350.08;1679555;84;21119;-52
2021/07/28 00:37:29;;;;;;;3.87;3.58;;;;;;;30.95;36.84;99355.73;1720894;83;21058;-53
2021/07/28 00:39:56;;;;;;;4.35;3.55;;;;;;;30.95;36.86;99361.66;1703547;83;21117;-50
2021/07/28 00:42:22;;;;;;;3.87;3.58;;;;;;;30.93;36.88;99359.09;1728909;83;21095;-53
2021/07/28 00:44:49;;;;;;;4.78;3.92;;;;;;;30.92;36.88;99364.22;1703513;83;21011;-54
2021/07/28 00:47:15;;;;;;;4.70;3.67;;;;;;;30.91;36.90;99353.84;1703539;83;21434;-48
2021/07/28 00:49:42;;;;;;;4.10;3.72;;;;;;;30.91;36.92;99353.02;1728639;83;21866;-53
2021/07/28 00:52:08;;;;;;;6.60;3.85;;;;;;;30.89;36.91;99336.07;1728627;83;21950;-53
2021/07/28 00:54:35;;;;;;;4.20;3.90;;;;;;;30.89;36.94;99348.30;1703421;83;21067;-54
2021/07/28 00:57:01;;;;;;;3.98;3.58;;;;;;;30.88;36.93;99339.80;1728527;83;21058;-52
2021/07/28 00:59:28;;;;;;;3.80;3.50;;;;;;;30.87;36.96;99327.28;1703589;83;21051;-52
2021/07/28 01:01:55;;;;;;;4.00;3.70;;;;;;;30.87;36.96;99323.20;1728717;83;21070;-52
2021/07/28 01:04:21;;;;;;;4.00;3.60;;;;;;;30.86;36.97;99328.30;1703951;81;21220;-53
2021/07/28 01:06:49;;;;;;;3.62;3.33;;;;;;;30.85;36.97;99325.24;1750539;82;21042;-53
2021/07/28 01:09:16;;;;;;;4.08;3.67;;;;;;;30.84;36.97;99327.12;1701511;82;21069;-52
2021/07/28 01:11:43;;;;;;;5.00;3.87;;;;;;;30.84;37.01;99329.84;1717024;82;21556;-49
2021/07/28 01:14:09;;;;;;;4.28;3.87;;;;;;;30.83;37.00;99338.17;1700817;82;21054;-52
2021/07/28 01:16:41;;;;;;;4.17;3.80;;;;;;;30.82;37.03;99341.94;1745601;80;21429;-52
2021/07/28 01:19:11;;;;;;;3.75;3.42;;;;;;;30.81;37.03;99333.45;1692093;84;21579;-53
2021/07/28 01:21:37;;;;;;;5.33;3.80;;;;;;;30.80;37.04;99324.97;1703805;84;21532;-53
2021/07/28 01:24:06;;;;;;;3.75;3.45;;;;;;;30.80;37.04;99329.05;1704442;84;21069;-53
2021/07/28 01:26:34;;;;;;;4.20;3.80;;;;;;;30.80;37.05;99333.11;1703480;84;20997;-51
2021/07/28 01:29:01;;;;;;;4.30;3.90;;;;;;;30.78;37.08;99336.54;1703280;84;21168;-53
2021/07/28 01:31:27;;;;;;;5.45;3.85;;;;;;;30.78;37.10;99333.83;1703072;84;21029;-53
2021/07/28 01:33:53;;;;;;;4.78;4.08;;;;;;;30.76;37.09;99342.16;1703456;84;21109;-52
2021/07/28 01:36:21;;;;;;;3.55;3.25;;;;;;;30.75;37.10;99346.76;1704532;84;20998;-53
2021/07/28 01:38:49;;;;;;;4.37;3.60;;;;;;;30.75;37.11;99346.76;1686319;82;21065;-52
2021/07/28 01:41:16;;;;;;;3.92;3.62;;;;;;;30.73;37.11;99347.96;1654569;85;21109;-52
2021/07/28 01:43:42;;;;;;;4.17;3.77;;;;;;;30.72;37.12;99353.92;1706007;84;21061;-52
2021/07/28 01:46:09;;;;;;;4.10;3.80;;;;;;;30.73;37.14;99346.11;1691488;84;21039;-53
2021/07/28 01:48:37;;;;;;;3.62;3.35;;;;;;;30.71;37.15;99337.28;1699946;84;21031;-53
2021/07/28 01:51:03;;;;;;;3.92;3.52;;;;;;;30.70;37.17;99338.34;1688480;82;21488;-46
2021/07/28 01:53:30;;;;;;;4.60;3.50;;;;;;;30.70;37.18;99334.78;1718804;83;21116;-53
2021/07/28 01:55:58;;;;;;;4.85;3.60;;;;;;;30.70;37.19;99337.50;1679095;84;21525;-51
2021/07/28 01:58:24;;;;;;;5.50;4.05;;;;;;;30.68;37.20;99334.97;1718861;83;21079;-53
2021/07/28 02:00:51;;;;;;;4.05;3.47;;;;;;;30.68;37.21;99343.12;1680778;84;21168;-53
2021/07/28 02:03:18;;;;;;;4.40;3.90;;;;;;;30.67;37.21;99335.16;1718672;83;21012;-52
2021/07/28 02:05:44;;;;;;;3.47;3.27;;;;;;;30.66;37.25;99323.43;1676019;84;21108;-53
2021/07/28 02:08:14;;;;;;;3.90;3.50;;;;;;;30.65;37.24;99317.69;1689788;84;21059;-53
2021/07/28 02:10:46;;;;;;;4.05;3.62;;;;;;;30.65;37.28;99319.05;1704497;84;21034;-51
2021/07/28 02:13:15;;;;;;;4.30;3.90;;;;;;;30.64;37.28;99307.84;1711008;82;21058;-53
2021/07/28 02:15:41;;;;;;;3.90;3.60;;;;;;;30.64;37.28;99300.23;1705783;82;21006;-53
2021/07/28 02:18:08;;;;;;;3.80;3.50;;;;;;;30.61;37.29;99304.15;1733886;82;21133;-48
2021/07/28 02:20:35;;;;;;;3.92;3.40;;;;;;;30.61;37.33;99296.00;1733798;82;21124;-54
2021/07/28 02:23:03;;;;;;;4.00;3.60;;;;;;;30.60;37.30;99287.55;1733643;82;21018;-52
2021/07/28 02:25:29;;;;;;;3.87;3.60;;;;;;;30.60;37.31;99275.33;1733039;82;21971;-53
2021/07/28 02:27:56;;;;;;;3.95;3.65;;;;;;;30.60;37.34;99269.90;1680555;84;21029;-46
2021/07/28 02:30:23;;;;;;;5.25;3.75;;;;;;;30.58;37.32;99271.97;1718916;83;21124;-54
2021/07/28 02:32:51;;;;;;;4.05;3.60;;;;;;;30.59;37.33;99293.16;1701239;84;21015;-53
2021/07/28 02:35:18;;;;;;;3.70;3.40;;;;;;;30.59;37.35;99297.23;1697843;83;21561;-53
2021/07/28 02:37:45;;;;;;;3.67;3.25;;;;;;;30.58;37.35;99300.47;1680571;84;21041;-53
2021/07/28 02:40:15;;;;;;;3.80;3.50;;;;;;;30.57;37.38;99311.00;1722005;82;21000;-53
2021/07/28 02:42:41;;;;;;;4.05;3.52;;;;;;;30.58;37.39;99326.27;1732434;82;21809;-50
2021/07/28 02:45:08;;;;;;;3.80;3.50;;;;;;;30.57;37.40;99308.28;1701539;84;20979;-52
2021/07/28 02:47:35;;;;;;;3.80;3.50;;;;;;;30.56;37.39;99303.38;1698059;83;21055;-53
2021/07/28 02:50:02;;;;;;;3.87;3.58;;;;;;;30.56;37.38;99316.09;1680520;84;21007;-48
2021/07/28 02:52:28;;;;;;;3.72;3.42;;;;;;;30.57;37.38;99311.00;1718796;83;21117;-53
2021/07/28 02:54:55;;;;;;;4.12;3.83;;;;;;;30.56;37.39;99307.45;1702933;84;21410;-54
2021/07/28 02:57:21;;;;;;;3.80;3.50;;;;;;;30.56;37.40;99309.30;1743619;82;21059;-48
2021/07/28 02:59:47;;;;;;;3.70;3.30;;;;;;;30.56;37.38;99301.16;1732327;82;20980;-53
2021/07/28 03:02:14;;;;;;;3.80;3.50;;;;;;;30.55;37.39;99300.32;1701689;84;21050;-53
2021/07/28 03:04:40;;;;;;;3.80;3.50;;;;;;;30.57;37.38;99300.14;1719263;83;21063;-50
2021/07/28 03:07:07;;;;;;;4.10;3.80;;;;;;;30.56;37.39;99307.94;1733906;82;22098;-53
2021/07/28 03:09:34;;;;;;;4.75;3.58;;;;;;;30.56;37.39;99325.59;1733913;82;21538;-53
2021/07/28 03:12:00;;;;;;;3.65;3.17;;;;;;;30.56;37.38;99332.38;1708492;82;21010;-51
2021/07/28 03:14:27;;;;;;;3.62;3.35;;;;;;;30.56;37.39;99340.03;1664692;84;21035;-51
2021/07/28 03:16:53;;;;;;;4.60;3.25;;;;;;;30.57;37.37;99349.01;1674625;85;21010;-52
2021/07/28 03:19:20;;;;;;;3.70;3.27;;;;;;;30.58;37.37;99361.57;1690168;84;21158;-53
2021/07/28 03:21:50;;;;;;;3.95;3.65;;;;;;;30.58;37.36;99372.43;1664170;85;21075;-53
2021/07/28 03:24:18;;;;;;;3.85;3.55;;;;;;;30.59;37.35;99373.27;1688047;85;21015;-51
2021/07/28 03:26:46;;;;;;;3.40;3.10;;;;;;;30.58;37.37;99377.86;1677223;85;21094;-53
2021/07/28 03:29:13;;;;;;;3.87;3.58;;;;;;;30.57;37.33;99378.88;1703623;83;21019;-51
2021/07/28 03:31:41;;;;;;;4.10;3.42;;;;;;;30.57;37.36;99380.23;1703549;83;21264;-54
2021/07/28 03:34:07;;;;;;;4.15;3.80;;;;;;;30.57;37.33;99396.52;1728368;83;21022;-54
2021/07/28 03:36:33;;;;;;;3.80;3.52;;;;;;;30.56;37.36;99390.75;1703506;83;21142;-53
2021/07/28 03:39:00;;;;;;;4.17;3.62;;;;;;;30.56;37.34;99401.61;1703427;83;21054;-53
2021/07/28 03:41:27;;;;;;;3.90;3.60;;;;;;;30.55;37.34;99394.52;1703260;83;21059;-53
2021/07/28 03:43:53;;;;;;;3.67;3.37;;;;;;;30.55;37.37;99385.02;1728519;81;21147;-51
2021/07/28 03:46:20;;;;;;;3.85;3.55;;;;;;;30.54;37.37;99378.72;1750679;81;20982;-53
2021/07/28 03:48:46;;;;;;;3.75;3.47;;;;;;;30.53;37.37;99378.41;1724951;82;21069;-52
2021/07/28 03:51:13;;;;;;;4.00;3.70;;;;;;;30.53;37.34;99372.11;1750732;82;21508;-54
2021/07/28 03:53:40;;;;;;;6.40;3.70;;;;;;;30.52;37.34;99372.64;1725203;82;21528;-54
2021/07/28 03:56:06;;;;;;;4.05;3.75;;;;;;;30.52;37.35;99374.52;1750674;82;21866;-53
2021/07/28 03:58:33;;;;;;;4.00;3.60;;;;;;;30.52;37.35;99373.16;1750523;82;21021;-53
2021/07/28 04:00:59;;;;;;;3.50;3.20;;;;;;;30.50;37.38;99367.91;1725366;82;21029;-54
2021/07/28 04:03:26;;;;;;;4.20;3.40;;;;;;;30.50;37.36;99361.66;1725161;82;21018;-51
2021/07/28 04:05:54;;;;;;;3.62;3.33;;;;;;;30.49;37.39;99362.67;1725132;82;21190;-54
2021/07/28 04:08:21;;;;;;;3.50;3.30;;;;;;;30.49;37.39;99358.08;1748471;82;21508;-53
2021/07/28 04:10:48;;;;;;;3.62;3.33;;;;;;;30.49;37.39;99351.81;1725113;82;21567;-51
2021/07/28 04:13:15;;;;;;;4.10;3.80;;;;;;;30.49;37.39;99338.23;1722314;82;21053;-52
2021/07/28 04:15:42;;;;;;;3.75;3.40;;;;;;;30.49;37.39;99347.73;1721105;83;21052;-53
2021/07/28 04:18:09;;;;;;;3.60;3.27;;;;;;;30.49;37.39;99357.23;1720876;83;21006;-53
2021/07/28 04:20:37;;;;;;;3.72;3.42;;;;;;;30.49;37.39;99370.81;1721009;83;21576;-49
2021/07/28 04:23:04;;;;;;;4.15;3.65;;;;;;;30.49;37.39;99369.45;1720878;83;21524;-53
2021/07/28 04:25:30;;;;;;;3.87;3.58;;;;;;;30.48;37.40;99353.69;1720816;83;21046;-53
2021/07/28 04:27:57;;;;;;;3.98;3.60;;;;;;;30.48;37.39;99347.40;1720891;83;21023;-50
2021/07/28 04:30:24;;;;;;;3.90;3.55;;;;;;;30.48;37.39;99339.25;1698640;83;21026;-53
2021/07/28 04:32:50;;;;;;;3.55;3.35;;;;;;;30.48;37.39;99341.97;1705807;84;21202;-54
2021/07/28 04:35:16;;;;;;;3.40;3.17;;;;;;;30.47;37.40;99333.52;1705729;84;21090;-53
2021/07/28 04:37:43;;;;;;;4.03;3.47;;;;;;;30.47;37.38;99335.70;1689446;84;21098;-49
2021/07/28 04:40:11;;;;;;;4.05;3.62;;;;;;;30.47;37.38;99330.80;1705842;84;21051;-52
2021/07/28 04:42:38;;;;;;;3.75;3.45;;;;;;;30.47;37.38;99324.02;1706116;84;21004;-53
2021/07/28 04:45:06;;;;;;;3.25;3.02;;;;;;;30.48;37.39;99326.55;1689364;84;21997;-53
2021/07/28 04:47:34;;;;;;;4.80;3.90;;;;;;;30.48;37.35;99332.47;1705984;84;21046;-53
2021/07/28 04:50:01;;;;;;;4.03;3.62;;;;;;;30.50;37.32;99334.50;1689270;84;21008;-50
2021/07/28 04:52:27;;;;;;;3.05;2.85;;;;;;;30.51;37.33;99332.09;1689608;84;21627;-53
2021/07/28 04:54:53;;;;;;;3.62;3.33;;;;;;;30.52;37.29;99333.80;1705642;84;21112;-53
2021/07/28 04:57:21;;;;;;;3.42;3.15;;;;;;;30.53;37.27;99336.82;1689340;84;21399;-50
2021/07/28 04:59:47;;;;;;;3.80;3.50;;;;;;;30.55;37.22;99334.78;1689296;84;21050;-52
2021/07/28 05:02:14;;;;;;;3.70;3.40;;;;;;;30.57;37.20;99336.79;1705786;84;21545;-52
2021/07/28 05:04:42;;;;;;;4.55;3.60;;;;;;;30.59;37.18;99341.52;1698290;82;21064;-52
2021/07/28 05:07:09;;;;;;;3.70;3.40;;;;;;;30.61;37.15;99340.80;1748727;82;21089;-53
2021/07/28 05:09:36;;;;;;;3.62;3.33;;;;;;;30.64;37.09;99340.95;1748595;82;21191;-51
2021/07/28 05:12:05;;;;;;;4.25;3.47;;;;;;;30.66;37.04;99343.80;1749367;82;21021;-51
2021/07/28 05:14:31;;;;;;;3.72;3.42;;;;;;;30.70;37.00;99340.22;1750713;82;21030;-52
2021/07/28 05:16:58;;;;;;;3.62;3.33;;;;;;;30.74;36.93;99342.34;1750581;82;21544;-53
2021/07/28 05:19:24;;;;;;;3.95;3.30;;;;;;;30.79;36.85;99335.00;1751501;81;21041;-53
2021/07/28 05:21:51;;;;;;;3.25;3.02;;;;;;;30.85;36.75;99334.75;1756672;81;21334;-52
2021/07/28 05:24:18;;;;;;;3.50;3.20;;;;;;;30.90;36.64;99332.30;1756485;81;21021;-54
2021/07/28 05:26:44;;;;;;;3.58;3.33;;;;;;;30.96;36.54;99334.83;1749028;81;21051;-50
2021/07/28 05:29:12;;;;;;;3.75;3.37;;;;;;;31.02;36.44;99332.20;1748050;82;21062;-52
2021/07/28 05:31:38;;;;;;;3.62;3.33;;;;;;;31.09;36.29;99327.67;1748309;82;21097;-54
2021/07/28 05:34:05;;;;;;;3.42;3.12;;;;;;;31.19;36.15;99319.75;1724401;82;21064;-52
2021/07/28 05:36:32;;;;;;;3.87;3.47;;;;;;;31.25;36.00;99321.68;1748008;82;21548;-53
2021/07/28 05:38:58;;;;;;;3.50;3.20;;;;;;;31.32;35.88;99311.74;1747901;82;21743;-53
2021/07/28 05:41:25;;;;;;;3.50;3.20;;;;;;;31.39;35.74;99308.57;1724347;82;21498;-51
2021/07/28 05:43:52;;;;;;;2.72;2.52;;;;;;;31.46;35.62;99309.47;1750047;81;21000;-52
2021/07/28 05:46:19;;;;;;;5.83;3.40;;;;;;;31.51;35.51;99301.30;1750176;82;21092;-53
2021/07/28 05:48:46;;;;;;;5.45;3.30;;;;;;;31.56;35.40;99299.67;1728963;82;21111;-51
2021/07/28 05:51:14;;;;;;;3.15;2.83;;;;;;;31.60;35.30;99295.51;1728596;82;21640;-54
2021/07/28 05:53:41;;;;;;;4.30;3.58;;;;;;;31.66;35.22;99303.42;1728699;82;21059;-54
2021/07/28 05:56:07;;;;;;;3.77;3.47;;;;;;;31.70;35.13;99306.06;1750088;82;20924;-53
2021/07/28 05:58:35;;;;;;;4.20;3.20;;;;;;;31.73;35.06;99308.39;1750494;82;21096;-54
2021/07/28 06:01:01;;;;;;;3.52;3.22;;;;;;;31.77;34.98;99302.88;1750079;82;21554;-52
2021/07/28 06:03:28;;;;;;;3.25;3.00;;;;;;;31.81;34.91;99303.35;1750465;82;21409;-52
2021/07/28 06:05:58;;;;;;;3.00;2.80;;;;;;;31.83;34.84;99299.37;1733249;81;21890;-54
2021/07/28 06:08:25;;;;;;;3.50;3.20;;;;;;;31.85;34.78;99295.94;1726839;83;21686;-54
2021/07/28 06:10:52;;;;;;;3.27;3.08;;;;;;;31.88;34.74;99291.16;1726643;82;21847;-53
2021/07/28 06:13:18;;;;;;;3.15;2.85;;;;;;;31.91;34.66;99290.25;1750920;81;21045;-54
2021/07/28 06:15:47;;;;;;;3.42;3.12;;;;;;;31.93;34.64;99288.69;1730534;81;21017;-54
2021/07/28 06:18:13;;;;;;;4.05;2.98;;;;;;;31.96;34.59;99288.27;1751677;81;21207;-54
2021/07/28 06:20:40;;;;;;;3.17;2.90;;;;;;;31.98;34.56;99288.94;1751709;81;21119;-50
2021/07/28 06:23:06;;;;;;;3.10;2.87;;;;;;;31.99;34.51;99286.02;1752168;81;21617;-52
2021/07/28 06:25:33;;;;;;;3.30;3.00;;;;;;;32.01;34.49;99293.46;1750385;81;20996;-52
2021/07/28 06:27:59;;;;;;;3.08;2.77;;;;;;;32.03;34.44;99284.58;1747852;82;21561;-52
2021/07/28 06:30:26;;;;;;;3.52;3.22;;;;;;;32.06;34.40;99292.02;1748147;82;22138;-53
2021/07/28 06:32:52;;;;;;;3.42;3.10;;;;;;;32.07;34.39;99291.84;1747951;82;21199;-52
2021/07/28 06:35:19;;;;;;;2.72;2.52;;;;;;;32.09;34.34;99291.13;1747924;82;23242;-52
2021/07/28 06:37:45;;;;;;;3.77;3.12;;;;;;;32.11;34.33;99293.65;1724369;82;21051;-53
2021/07/28 06:40:14;;;;;;;3.35;3.05;;;;;;;32.12;34.30;99286.65;1747995;82;21024;-54
2021/07/28 06:42:40;;;;;;;2.92;2.72;;;;;;;32.12;34.26;99283.93;1748229;82;21079;-54
2021/07/28 06:45:08;;;;;;;3.67;2.60;;;;;;;32.14;34.25;99289.17;1724111;82;21039;-53
2021/07/28 06:47:35;;;;;;;2.95;2.75;;;;;;;32.14;34.25;99287.28;1748032;82;21253;-54
2021/07/28 06:50:03;;;;;;;2.98;2.67;;;;;;;32.16;34.24;99283.87;1747835;82;21008;-52
2021/07/28 06:52:29;;;;;;;3.75;2.60;;;;;;;32.17;34.23;99290.98;1748075;82;21582;-54
2021/07/28 06:54:57;;;;;;;3.17;2.85;;;;;;;32.18;34.18;99285.86;1747884;82;21035;-52
2021/07/28 06:57:24;;;;;;;4.05;3.10;;;;;;;32.20;34.14;99292.47;1748050;82;20932;-54
2021/07/28 06:59:52;;;;;;;3.08;2.72;;;;;;;32.20;34.15;99296.03;1724619;82;21796;-51
2021/07/28 07:02:19;;;;;;;2.98;2.70;;;;;;;32.21;34.13;99296.36;1747947;82;21040;-53
2021/07/28 07:04:45;;;;;;;2.75;2.55;;;;;;;32.22;34.13;99298.02;1742953;81;21042;-54
2021/07/28 07:07:11;;;;;;;2.83;2.70;;;;;;;32.23;34.12;99298.89;1703544;83;21046;-53
2021/07/28 07:09:38;;;;;;;3.87;2.85;;;;;;;32.25;34.14;99305.49;1726504;82;21049;-54
2021/07/28 07:12:05;;;;;;;2.50;2.30;;;;;;;32.26;34.13;99312.07;1726609;81;21084;-52
2021/07/28 07:14:31;;;;;;;2.85;2.65;;;;;;;32.26;34.13;99307.98;1726479;83;21029;-51
2021/07/28 07:16:59;;;;;;;3.05;2.80;;;;;;;32.28;34.12;99315.96;1703745;83;21029;-53
2021/07/28 07:19:26;;;;;;;2.83;2.60;;;;;;;32.28;34.08;99310.52;1726646;83;22015;-50
2021/07/28 07:21:52;;;;;;;2.65;2.45;;;;;;;32.29;34.08;99313.04;1726513;83;21009;-54
2021/07/28 07:24:19;;;;;;;3.45;3.00;;;;;;;32.30;34.04;99312.02;1726594;83;21831;-53
2021/07/28 07:26:46;;;;;;;4.83;2.60;;;;;;;32.31;34.07;99312.84;1726484;83;21027;-51
2021/07/28 07:29:13;;;;;;;3.33;2.47;;;;;;;32.32;34.05;99318.09;1703870;83;21055;-52
2021/07/28 07:31:41;;;;;;;2.72;2.52;;;;;;;32.33;34.04;99316.20;1726397;83;21098;-53
2021/07/28 07:34:08;;;;;;;2.70;2.47;;;;;;;32.35;34.02;99318.23;1726662;83;21049;-54
2021/07/28 07:36:35;;;;;;;2.85;2.65;;;;;;;32.36;34.04;99316.67;1726616;82;21561;-52
2021/07/28 07:39:03;;;;;;;3.30;2.95;;;;;;;32.36;34.03;99318.03;1703477;83;21113;-54
2021/07/28 07:41:31;;;;;;;3.10;2.80;;;;;;;32.38;34.03;99318.66;1726516;83;21018;-53
2021/07/28 07:43:58;;;;;;;5.10;2.60;;;;;;;32.38;34.00;99330.05;1703503;83;21059;-50
2021/07/28 07:46:25;;;;;;;3.00;2.67;;;;;;;32.40;34.00;99326.64;1726747;82;21573;-51
2021/07/28 07:48:52;;;;;;;2.87;2.60;;;;;;;32.40;34.00;99322.55;1748373;81;21136;-53
2021/07/28 07:51:19;;;;;;;2.72;2.52;;;;;;;32.41;34.02;99325.58;1751720;81;21033;-51
2021/07/28 07:53:46;;;;;;;3.20;2.90;;;;;;;32.41;34.00;99325.58;1751726;81;21048;-55
2021/07/28 07:56:13;;;;;;;2.80;2.60;;;;;;;32.42;34.01;99323.19;1751530;81;21016;-51
2021/07/28 07:58:41;;;;;;;4.03;2.87;;;;;;;32.43;34.03;99321.30;1751660;81;20997;-53
2021/07/28 08:01:11;;;;;;;2.75;2.55;;;;;;;32.44;34.02;99315.66;1751889;81;21139;-51
2021/07/28 08:03:39;;;;;;;2.92;2.62;;;;;;;32.45;34.02;99322.80;1751697;81;21097;-53
2021/07/28 08:06:06;;;;;;;2.62;2.42;;;;;;;32.46;34.00;99324.98;1755572;80;20990;-54
2021/07/28 08:08:33;;;;;;;2.95;2.75;;;;;;;32.46;34.01;99320.38;1756402;81;21045;-53
2021/07/28 08:11:00;;;;;;;3.45;2.60;;;;;;;32.46;34.01;99324.45;1756719;81;21108;-51
2021/07/28 08:13:27;;;;;;;3.20;2.87;;;;;;;32.47;34.01;99317.98;1752131;81;21170;-52
2021/07/28 08:15:54;;;;;;;2.65;2.45;;;;;;;32.48;34.00;99319.67;1756430;81;21030;-55
2021/07/28 08:18:21;;;;;;;3.10;2.90;;;;;;;32.49;34.02;99323.23;1722340;82;21106;-50
2021/07/28 08:20:47;;;;;;;3.65;2.42;;;;;;;32.50;34.02;99325.75;1719974;83;21046;-53
2021/07/28 08:23:14;;;;;;;3.65;2.90;;;;;;;32.51;34.01;99326.59;1705776;83;21578;-53
2021/07/28 08:25:41;;;;;;;2.80;2.60;;;;;;;32.52;34.05;99325.55;1704784;82;22027;-52
2021/07/28 08:28:12;;;;;;;2.95;2.55;;;;;;;32.52;34.04;99318.22;1746602;82;21592;-54
2021/07/28 08:30:40;;;;;;;3.12;2.75;;;;;;;32.53;34.04;99313.60;1723578;82;21220;-55
2021/07/28 08:33:07;;;;;;;4.22;2.60;;;;;;;32.53;34.03;99315.83;1723370;82;21510;-54
2021/07/28 08:35:33;;;;;;;3.52;3.22;;;;;;;32.53;34.04;99313.10;1723539;82;21027;-54
2021/07/28 08:38:00;;;;;;;2.90;2.27;;;;;;;32.54;34.03;99310.68;1723624;82;21043;-52
2021/07/28 08:40:26;;;;;;;3.40;2.95;;;;;;;32.56;34.04;99310.48;1746968;82;21083;-53
2021/07/28 08:42:52;;;;;;;3.30;3.00;;;;;;;32.55;34.05;99311.02;1747510;82;21071;-53
2021/07/28 08:45:19;;;;;;;4.30;2.80;;;;;;;32.56;34.05;99311.31;1746966;82;21032;-54
2021/07/28 08:47:46;;;;;;;2.83;2.62;;;;;;;32.57;34.03;99310.28;1746807;82;21103;-53
2021/07/28 08:50:14;;;;;;;4.22;2.80;;;;;;;32.58;34.03;99306.53;1746787;82;21054;-50
2021/07/28 08:52:41;;;;;;;3.52;2.85;;;;;;;32.58;34.05;99306.53;1747195;82;20957;-53
2021/07/28 08:55:08;;;;;;;4.15;2.80;;;;;;;32.59;34.05;99301.91;1746794;82;21541;-53
2021/07/28 08:57:35;;;;;;;2.95;2.65;;;;;;;32.61;34.08;99307.16;1747072;82;21050;-51
2021/07/28 09:00:04;;;;;;;3.15;2.27;;;;;;;32.61;34.09;99309.39;1723787;82;21660;-54
2021/07/28 09:02:31;;;;;;;3.30;2.70;;;;;;;32.63;34.08;99303.73;1747170;82;21139;-53
2021/07/28 09:04:58;;;;;;;2.85;2.50;;;;;;;32.64;34.08;99304.07;1738544;82;20957;-54
2021/07/28 09:07:24;;;;;;;2.98;2.72;;;;;;;32.65;34.08;99309.82;1696119;83;21101;-53
2021/07/28 09:09:55;;;;;;;3.98;2.90;;;;;;;32.67;34.08;99302.31;1720972;83;21127;-54
2021/07/28 09:12:34;;;;;;;3.92;2.72;;;;;;;32.66;34.08;99301.45;1720775;82;21554;-54
2021/07/28 09:15:05;;;;;;;3.30;3.00;;;;;;;32.68;34.08;99302.61;1720730;83;21010;-52
2021/07/28 09:18:05;;;;;;;2.92;2.52;;;;;;;32.68;34.13;99301.25;1696040;83;21043;-52
2021/07/28 09:20:25;;;;;;;3.10;2.90;;;;;;;32.68;34.15;99298.03;1726616;82;21000;-53
2021/07/28 09:22:52;;;;;;;2.92;2.72;;;;;;;32.68;34.15;99289.86;1745062;82;21090;-54
2021/07/28 09:25:29;;;;;;;4.22;2.58;;;;;;;32.69;34.17;99293.41;1748832;82;21088;-54
2021/07/28 09:27:49;;;;;;;2.98;2.35;;;;;;;32.69;34.18;99291.52;1747687;82;21169;-49
2021/07/28 09:30:27;;;;;;;2.87;2.67;;;;;;;32.70;34.17;99285.04;1747162;82;21110;-54
2021/07/28 09:33:04;;;;;;;3.30;3.00;;;;;;;32.73;34.17;99288.72;1747058;82;21095;-53
2021/07/28 09:36:07;;;;;;;3.58;2.70;;;;;;;32.75;34.19;99287.13;1712688;83;21004;-52
2021/07/28 09:38:45;;;;;;;2.70;2.50;;;;;;;32.77;34.18;99291.87;1705688;83;21007;-54
2021/07/28 09:41:27;;;;;;;2.70;2.50;;;;;;;32.79;34.17;99282.97;1705989;84;21173;-52
2021/07/28 09:44:01;;;;;;;2.72;2.47;;;;;;;32.81;34.16;99280.88;1689231;84;21546;-52
2021/07/28 09:46:35;;;;;;;2.75;2.55;;;;;;;32.82;34.14;99274.40;1706135;84;21102;-53
2021/07/28 09:49:11;;;;;;;3.30;2.92;;;;;;;32.84;34.17;99276.92;1705591;84;21683;-52
2021/07/28 09:51:43;;;;;;;2.83;2.62;;;;;;;32.85;34.16;99274.50;1706088;83;21152;-55
2021/07/28 09:54:11;;;;;;;2.83;2.40;;;;;;;32.85;34.16;99268.55;1721961;82;22343;-52
2021/07/28 09:56:55;;;;;;;2.80;2.60;;;;;;;32.87;34.18;99275.98;1747115;82;21632;-54
2021/07/28 09:59:25;;;;;;;3.00;2.70;;;;;;;32.87;34.20;99273.27;1723793;82;21051;-53
2021/07/28 10:01:52;;;;;;;2.92;2.72;;;;;;;32.88;34.21;99262.66;1747025;82;21560;-55
2021/07/28 10:04:20;;;;;;;2.60;2.40;;;;;;;32.88;34.21;99258.58;1722223;82;21063;-52
2021/07/28 10:06:49;;;;;;;3.80;2.77;;;;;;;32.91;34.21;99256.80;1696623;83;21061;-54
2021/07/28 10:09:18;;;;;;;2.67;2.47;;;;;;;32.92;34.21;99258.50;1720920;83;21041;-54
2021/07/28 10:11:52;;;;;;;2.60;2.45;;;;;;;32.93;34.21;99261.55;1720733;82;21037;-54
2021/07/28 10:14:20;;;;;;;4.15;2.92;;;;;;;32.95;34.20;99254.01;1720948;83;21084;-54
2021/07/28 10:16:48;;;;;;;3.12;2.83;;;;;;;32.96;34.21;99250.22;1720780;83;21156;-54
2021/07/28 10:19:16;;;;;;;4.47;3.15;;;;;;;32.99;34.22;99245.42;1720802;83;21205;-53
2021/07/28 10:21:42;;;;;;;2.83;2.20;;;;;;;33.00;34.22;99245.72;1723267;83;21526;-52
2021/07/28 10:24:16;;;;;;;2.80;2.60;;;;;;;33.02;34.21;99243.62;1726586;83;21101;-54
2021/07/28 10:26:42;;;;;;;2.98;2.67;;;;;;;33.03;34.22;99243.42;1702748;83;21038;-54
2021/07/28 10:29:09;;;;;;;2.62;2.42;;;;;;;33.05;34.22;99244.58;1703644;83;21063;-54
2021/07/28 10:31:51;;;;;;;2.98;2.77;;;;;;;33.06;34.22;99244.38;1726531;82;21521;-53
2021/07/28 10:34:24;;;;;;;2.80;2.60;;;;;;;33.07;34.27;99246.57;1725911;83;21039;-53
2021/07/28 10:36:55;;;;;;;2.98;2.72;;;;;;;33.08;34.26;99250.98;1726509;82;21023;-53
2021/07/28 10:39:47;;;;;;;2.50;2.30;;;;;;;33.10;34.24;99249.75;1724092;83;21004;-51
2021/07/28 10:42:18;;;;;;;2.60;2.40;;;;;;;33.12;34.24;99244.09;1726592;82;21019;-52
2021/07/28 10:45:06;;;;;;;3.42;2.50;;;;;;;33.14;34.24;99250.17;1703415;83;21714;-53
2021/07/28 10:47:41;;;;;;;3.12;2.70;;;;;;;33.16;34.23;99244.55;1726427;82;21063;-53
2021/07/28 10:50:33;;;;;;;2.22;2.10;;;;;;;33.16;34.23;99242.66;1703605;83;21066;-53
2021/07/28 10:53:03;;;;;;;2.58;2.37;;;;;;;33.18;34.27;99243.28;1726580;82;21082;-55
2021/07/28 10:55:37;;;;;;;2.40;2.30;;;;;;;33.20;34.23;99244.44;1726387;82;21031;-53
2021/07/28 10:58:14;;;;;;;2.70;2.50;;;;;;;33.21;34.23;99236.06;1726578;82;21786;-53
2021/07/28 11:00:48;;;;;;;3.30;2.60;;;;;;;33.22;34.23;99226.84;1726475;83;21019;-53
2021/07/28 11:03:17;;;;;;;2.62;2.37;;;;;;;33.26;34.22;99231.35;1726634;83;21442;-53
2021/07/28 11:05:49;;;;;;;2.35;2.25;;;;;;;33.28;34.21;99232.81;1745687;81;21006;-50
2021/07/28 11:08:20;;;;;;;2.50;2.30;;;;;;;33.29;34.21;99233.14;1725905;81;21050;-50
2021/07/28 11:11:01;;;;;;;2.77;2.58;;;;;;;33.31;34.20;99242.47;1725640;81;21500;-51
2021/07/28 11:13:30;;;;;;;2.60;2.40;;;;;;;33.32;34.19;99230.00;1756813;81;21045;-53
2021/07/28 11:16:04;;;;;;;2.70;2.30;;;;;;;33.35;34.20;99227.89;1756652;81;21512;-54
2021/07/28 11:18:43;;;;;;;3.00;2.80;;;;;;;33.38;34.17;99220.66;1741898;81;37713;-51
2021/07/28 11:21:20;;;;;;;2.72;2.52;;;;;;;33.42;34.15;99217.83;1732402;81;21707;-53
2021/07/28 11:23:59;;;;;;;2.70;2.50;;;;;;;33.49;34.05;99218.69;1735257;82;21134;-50
2021/07/28 11:26:32;;;;;;;2.55;2.35;;;;;;;33.50;34.03;99212.16;1740823;82;20959;-56
2021/07/28 11:29:03;;;;;;;2.98;2.67;;;;;;;33.50;34.06;99213.53;1747074;82;21124;-54
2021/07/28 11:31:41;;;;;;;2.77;2.57;;;;;;;33.51;34.05;99215.22;1747253;82;21098;-54
2021/07/28 11:34:18;;;;;;;2.75;2.55;;;;;;;33.51;34.09;99217.95;1723503;82;21054;-53
2021/07/28 11:36:58;;;;;;;2.50;2.22;;;;;;;33.51;34.11;99213.86;1723599;82;21194;-52
2021/07/28 11:39:25;;;;;;;2.55;2.15;;;;;;;33.51;34.09;99213.32;1746537;82;21094;-55
2021/07/28 11:42:05;;;;;;;2.52;2.40;;;;;;;33.52;34.14;99211.42;1746805;82;21502;-53